createdAt,value
2022-08-16T00:01:14.749Z,6.28
2022-08-16T00:03:41.427Z,8.02
2022-08-16T00:06:10.758Z,8.45
2022-08-16T00:08:37.740Z,7.85
2022-08-16T00:11:15.022Z,5.25
2022-08-16T00:13:53.538Z,8.98
2022-08-16T00:17:06.215Z,5.93
2022-08-16T00:19:17.592Z,6.18
2022-08-16T00:21:44.908Z,9.75
2022-08-16T00:24:12.641Z,11.85
2022-08-16T00:26:44.468Z,9.15
2022-08-16T00:29:13.073Z,19.35
2022-08-16T00:31:59.842Z,13.48
2022-08-16T00:34:43.335Z,9.20
2022-08-16T00:37:16.923Z,9.02
2022-08-16T00:39:44.793Z,9.20
2022-08-16T00:42:11.419Z,9.40
2022-08-16T00:44:39.385Z,7.63
2022-08-16T00:47:12.606Z,10.63
2022-08-16T00:49:44.626Z,7.45
2022-08-16T00:52:29.654Z,7.32
2022-08-16T00:54:57.698Z,8.95
2022-08-16T00:57:24.270Z,7.65
2022-08-16T00:59:59.072Z,7.93
2022-08-16T01:02:31.811Z,7.40
2022-08-16T01:05:09.122Z,7.13
2022-08-16T01:07:51.647Z,8.88
2022-08-16T01:10:31.848Z,9.10
2022-08-16T01:13:08.226Z,9.75
2022-08-16T01:15:43.146Z,9.32
2022-08-16T01:18:39.963Z,9.68
2022-08-16T01:21:14.592Z,6.00
2022-08-16T01:24:01.213Z,6.50
2022-08-16T01:26:34.552Z,8.68
2022-08-16T01:29:04.413Z,6.22
2022-08-16T01:31:31.303Z,5.88
2022-08-16T01:33:59.318Z,6.78
2022-08-16T01:36:26.733Z,6.05
2022-08-16T01:38:57.048Z,7.13
2022-08-16T01:41:30.894Z,10.95
2022-08-16T01:44:02.737Z,8.32
2022-08-16T01:46:39.277Z,6.88
2022-08-16T01:49:20.567Z,8.18
2022-08-16T01:51:50.481Z,7.28
2022-08-16T01:54:31.248Z,7.53
2022-08-16T01:56:59.444Z,7.03
2022-08-16T01:59:26.579Z,6.93
2022-08-16T02:01:56.271Z,5.95
2022-08-16T02:04:48.076Z,7.90
2022-08-16T02:07:18.486Z,9.50
2022-08-16T02:09:57.168Z,7.85
2022-08-16T02:12:51.751Z,10.57
2022-08-16T02:15:17.471Z,7.35
2022-08-16T02:17:52.554Z,6.55
2022-08-16T02:20:19.888Z,7.97
2022-08-16T02:22:55.176Z,6.68
2022-08-16T02:25:22.578Z,7.40
2022-08-16T02:27:51.029Z,5.65
2022-08-16T02:30:35.715Z,7.55
2022-08-16T02:33:05.654Z,6.97
2022-08-16T02:35:34.736Z,10.05
2022-08-16T02:38:20.537Z,7.03
2022-08-16T02:40:48.424Z,6.05
2022-08-16T02:43:16.094Z,7.95
2022-08-16T02:45:43.578Z,8.13
2022-08-16T02:48:29.928Z,10.02
2022-08-16T02:51:06.625Z,7.95
2022-08-16T02:53:40.303Z,7.68
2022-08-16T02:56:09.877Z,6.65
2022-08-16T02:58:37.138Z,7.90
2022-08-16T03:01:07.283Z,6.45
2022-08-16T03:04:29.143Z,7.53
2022-08-16T03:06:41.797Z,10.25
2022-08-16T03:09:19.363Z,10.82
2022-08-16T03:11:50.745Z,6.93
2022-08-16T03:14:21.134Z,10.82
2022-08-16T03:16:59.851Z,5.93
2022-08-16T03:19:48.746Z,10.15
2022-08-16T03:22:28.844Z,7.25
2022-08-16T03:25:04.540Z,6.95
2022-08-16T03:27:35.401Z,7.15
2022-08-16T03:30:16.044Z,6.00
2022-08-16T03:32:51.748Z,6.88
2022-08-16T03:38:02.372Z,7.15
2022-08-16T03:40:34.492Z,9.90
2022-08-16T03:43:19.827Z,7.28
2022-08-16T03:45:52.985Z,6.15
2022-08-16T03:48:36.056Z,7.72
2022-08-16T03:51:10.034Z,7.50
2022-08-16T03:53:45.085Z,8.68
2022-08-16T03:56:27.140Z,8.35
2022-08-16T03:58:58.136Z,7.50
2022-08-16T04:01:30.005Z,6.93
2022-08-16T04:03:57.613Z,6.65
2022-08-16T04:06:24.997Z,6.65
2022-08-16T04:08:51.820Z,10.93
2022-08-16T04:11:18.586Z,7.65
2022-08-16T04:13:59.926Z,8.02
2022-08-16T04:16:38.594Z,5.60
2022-08-16T04:19:31.796Z,7.30
2022-08-16T04:22:00.905Z,10.13
2022-08-16T04:24:32.412Z,9.90
2022-08-16T04:26:59.510Z,7.95
2022-08-16T04:29:27.822Z,7.88
2022-08-16T04:32:11.536Z,9.60
2022-08-16T04:34:42.680Z,8.07
2022-08-16T04:37:12.464Z,8.13
2022-08-16T04:39:46.970Z,5.50
2022-08-16T04:42:26.436Z,7.93
2022-08-16T04:44:58.392Z,7.22
2022-08-16T04:47:35.326Z,10.18
2022-08-16T04:50:09.588Z,15.18
2022-08-16T04:52:37.059Z,12.23
2022-08-16T04:55:06.211Z,12.68
2022-08-16T04:57:34.609Z,11.63
2022-08-16T05:00:30.597Z,18.05
2022-08-16T05:02:56.214Z,11.15
2022-08-16T05:05:24.292Z,11.00
2022-08-16T05:07:58.669Z,11.65
2022-08-16T05:10:28.396Z,16.17
2022-08-16T05:12:56.895Z,15.05
2022-08-16T05:15:23.501Z,15.00
2022-08-16T05:17:58.450Z,15.40
2022-08-16T05:20:39.130Z,15.68
2022-08-16T05:23:13.766Z,16.98
2022-08-16T05:25:47.827Z,15.23
2022-08-16T05:28:17.381Z,13.65
2022-08-16T05:30:52.446Z,21.05
2022-08-16T05:33:23.680Z,12.65
2022-08-16T05:35:55.595Z,11.98
2022-08-16T05:38:43.048Z,10.82
2022-08-16T05:41:14.033Z,10.77
2022-08-16T05:43:46.962Z,11.85
2022-08-16T05:46:29.868Z,15.98
2022-08-16T05:49:09.031Z,16.05
2022-08-16T05:51:40.319Z,11.57
2022-08-16T05:54:11.433Z,11.80
2022-08-16T05:56:39.974Z,13.52
2022-08-16T05:59:09.373Z,13.50
2022-08-16T06:01:38.941Z,13.25
2022-08-16T06:04:13.721Z,15.50
2022-08-16T06:06:56.769Z,12.43
2022-08-16T06:09:43.886Z,14.15
2022-08-16T06:12:27.177Z,15.85
2022-08-16T06:15:07.598Z,15.93
2022-08-16T06:17:42.286Z,15.35
2022-08-16T06:20:23.801Z,19.08
2022-08-16T06:22:58.499Z,15.13
2022-08-16T06:25:39.648Z,12.32
2022-08-16T06:28:09.796Z,14.55
2022-08-16T06:30:44.056Z,16.02
2022-08-16T06:33:22.440Z,14.30
2022-08-16T06:35:55.060Z,12.98
2022-08-16T06:38:32.994Z,18.88
2022-08-16T06:41:13.583Z,17.08
2022-08-16T06:43:42.516Z,14.43
2022-08-16T06:46:31.870Z,16.42
2022-08-16T06:49:05.337Z,13.88
2022-08-16T06:51:48.084Z,21.40
2022-08-16T06:54:21.712Z,11.95
2022-08-16T06:56:52.468Z,17.55
2022-08-16T06:59:21.547Z,19.05
2022-08-16T07:01:58.464Z,19.00
2022-08-16T07:04:32.355Z,19.52
2022-08-16T07:09:29.879Z,20.63
2022-08-16T07:12:03.922Z,20.50
2022-08-16T07:14:35.120Z,15.43
2022-08-16T07:17:08.173Z,19.33
2022-08-16T07:20:02.685Z,19.00
2022-08-16T07:22:37.495Z,16.45
2022-08-16T07:25:10.645Z,10.13
2022-08-16T07:27:39.361Z,17.33
2022-08-16T07:30:39.545Z,15.48
2022-08-16T07:33:02.224Z,15.38
2022-08-16T07:35:29.657Z,16.58
2022-08-16T07:37:56.267Z,14.50
2022-08-16T07:40:59.761Z,16.05
2022-08-16T07:43:23.374Z,16.27
2022-08-16T07:45:59.523Z,14.48
2022-08-16T07:48:30.992Z,12.90
2022-08-16T07:50:59.158Z,16.38
2022-08-16T07:53:29.630Z,15.32
2022-08-16T07:56:00.355Z,12.05
2022-08-16T07:58:36.277Z,16.77
2022-08-16T08:01:12.541Z,15.00
2022-08-16T08:03:50.462Z,15.63
2022-08-16T08:06:28.837Z,11.73
2022-08-16T08:09:00.316Z,17.30
2022-08-16T08:11:29.527Z,11.68
2022-08-16T08:14:03.108Z,12.63
2022-08-16T08:16:33.108Z,15.73
2022-08-16T08:19:02.442Z,12.70
2022-08-16T08:21:59.894Z,10.15
2022-08-16T08:24:17.958Z,13.23
2022-08-16T08:26:49.890Z,13.50
2022-08-16T08:29:22.654Z,13.20
2022-08-16T08:34:18.799Z,9.68
2022-08-16T08:36:45.827Z,17.10
2022-08-16T08:39:34.344Z,8.13
2022-08-16T08:42:25.183Z,14.43
2022-08-16T08:44:54.173Z,10.70
2022-08-16T08:47:23.509Z,12.00
2022-08-16T08:49:55.859Z,10.98
2022-08-16T08:52:44.387Z,12.30
2022-08-16T08:55:14.302Z,15.60
2022-08-16T08:57:43.775Z,12.60
2022-08-16T09:00:27.036Z,10.07
2022-08-16T09:02:58.308Z,9.18
2022-08-16T09:05:35.959Z,8.20
2022-08-16T09:08:07.279Z,8.63
2022-08-16T09:11:07.462Z,8.40
2022-08-16T09:13:38.402Z,7.35
2022-08-16T09:17:02.292Z,8.65
2022-08-16T09:21:32.059Z,8.63
2022-08-16T09:23:58.704Z,7.53
2022-08-16T09:26:44.964Z,10.63
2022-08-16T09:29:16.440Z,7.80
2022-08-16T09:31:46.604Z,12.30
2022-08-16T09:34:18.638Z,8.40
2022-08-16T09:36:46.519Z,9.88
2022-08-16T09:39:16.232Z,5.47
2022-08-16T09:41:53.061Z,8.80
2022-08-16T09:45:10.748Z,9.18
2022-08-16T09:47:10.111Z,9.35
2022-08-16T09:49:37.616Z,12.88
2022-08-16T09:52:09.588Z,9.82
2022-08-16T09:54:36.840Z,6.88
2022-08-16T09:57:03.662Z,7.20
2022-08-16T09:59:31.418Z,8.20
2022-08-16T10:02:22.970Z,7.55
2022-08-16T10:04:54.526Z,5.85
2022-08-16T10:07:21.508Z,7.88
2022-08-16T10:09:55.247Z,8.77
2022-08-16T10:15:15.822Z,5.85
2022-08-16T10:17:59.985Z,5.95
2022-08-16T10:20:30.724Z,6.53
2022-08-16T10:23:03.717Z,5.57
2022-08-16T10:27:16.383Z,8.18
2022-08-16T10:28:28.086Z,6.18
2022-08-16T10:30:58.737Z,7.03
2022-08-16T10:33:27.329Z,9.02
2022-08-16T10:36:02.572Z,9.75
2022-08-16T10:38:30.595Z,7.13
2022-08-16T10:41:00.332Z,8.25
2022-08-16T10:43:27.594Z,7.75
2022-08-16T10:46:00.125Z,11.60
2022-08-16T10:48:31.269Z,7.65
2022-08-16T10:50:58.819Z,10.82
2022-08-16T10:53:33.141Z,12.13
2022-08-16T10:56:02.537Z,11.85
2022-08-16T10:58:34.113Z,15.77
2022-08-16T11:01:25.051Z,14.00
2022-08-16T11:03:52.899Z,14.73
2022-08-16T11:06:21.625Z,15.75
2022-08-16T11:14:28.623Z,9.80
2022-08-16T11:17:10.402Z,17.15
2022-08-16T11:20:00.681Z,14.75
2022-08-16T11:22:47.422Z,13.05
2022-08-16T11:25:57.909Z,9.00
2022-08-16T11:28:01.115Z,10.45
2022-08-16T11:30:38.734Z,9.93
2022-08-16T11:33:06.095Z,12.40
2022-08-16T11:38:46.798Z,10.23
2022-08-16T11:41:08.699Z,11.60
2022-08-16T11:43:38.040Z,11.88
2022-08-16T11:46:43.581Z,8.50
2022-08-16T11:48:54.870Z,7.43
2022-08-16T11:51:22.772Z,12.35
2022-08-16T11:53:49.554Z,8.45
2022-08-16T11:56:16.119Z,6.38
2022-08-16T11:58:56.907Z,6.72
2022-08-16T12:01:29.763Z,6.32
2022-08-16T12:04:11.269Z,8.52
2022-08-16T12:06:40.272Z,15.27
2022-08-16T12:09:07.569Z,6.80
2022-08-16T12:11:36.757Z,6.93
2022-08-16T12:14:05.271Z,7.75
2022-08-16T12:16:34.480Z,8.30
2022-08-16T12:19:05.487Z,8.73
2022-08-16T12:21:35.882Z,7.00
2022-08-16T12:24:19.164Z,7.85
2022-08-16T12:26:45.780Z,7.90
2022-08-16T12:29:12.715Z,7.15
2022-08-16T12:31:39.281Z,7.97
2022-08-16T12:34:29.202Z,6.57
2022-08-16T12:36:56.080Z,7.28
2022-08-16T12:39:22.740Z,6.75
2022-08-16T12:41:49.847Z,5.68
2022-08-16T12:44:19.934Z,8.60
2022-08-16T12:47:06.677Z,8.13
2022-08-16T12:49:33.403Z,7.95
2022-08-16T12:52:09.327Z,7.90
2022-08-16T12:54:57.941Z,8.43
2022-08-16T12:57:25.500Z,6.50
2022-08-16T13:00:05.368Z,10.15
2022-08-16T13:02:33.492Z,8.02
2022-08-16T13:05:00.503Z,7.28
2022-08-16T13:07:28.201Z,5.72
2022-08-16T13:10:20.592Z,6.78
2022-08-16T13:12:51.384Z,6.93
2022-08-16T13:15:19.089Z,5.90
2022-08-16T13:17:53.016Z,7.15
2022-08-16T13:20:22.975Z,7.47
2022-08-16T13:22:53.518Z,8.98
2022-08-16T13:25:23.460Z,5.07
2022-08-16T13:28:02.823Z,7.53
2022-08-16T13:30:37.247Z,6.95
2022-08-16T13:33:10.854Z,4.22
2022-08-16T13:35:42.906Z,7.57
2022-08-16T13:38:24.915Z,7.72
2022-08-16T13:40:53.632Z,5.35
2022-08-16T13:43:23.475Z,10.00
2022-08-16T13:45:52.111Z,8.75
2022-08-16T13:48:25.726Z,5.35
2022-08-16T13:50:54.077Z,8.45
2022-08-16T13:53:24.494Z,7.78
2022-08-16T13:55:59.149Z,6.00
2022-08-16T13:58:36.697Z,6.95
2022-08-16T14:01:11.749Z,4.63
2022-08-16T14:03:39.332Z,6.55
2022-08-16T14:06:07.029Z,5.70
2022-08-16T14:08:37.795Z,6.05
2022-08-16T14:11:12.164Z,6.05
2022-08-16T14:13:39.657Z,4.47
2022-08-16T14:16:12.582Z,4.80
2022-08-16T14:18:50.633Z,5.78
2022-08-16T14:21:19.619Z,5.43
2022-08-16T14:23:49.082Z,5.22
2022-08-16T14:26:15.750Z,5.63
2022-08-16T14:28:42.741Z,4.80
2022-08-16T14:31:09.842Z,6.35
2022-08-16T14:33:36.747Z,6.97
2022-08-16T14:36:03.401Z,5.75
2022-08-16T14:38:39.295Z,5.72
2022-08-16T14:41:10.243Z,6.45
2022-08-16T14:43:37.157Z,5.82
2022-08-16T14:46:07.416Z,7.78
2022-08-16T14:48:34.605Z,4.93
2022-08-16T14:51:01.373Z,6.22
2022-08-16T14:53:28.976Z,6.65
2022-08-16T14:55:59.807Z,4.70
2022-08-16T14:58:34.921Z,6.88
2022-08-16T15:01:05.972Z,5.30
2022-08-16T15:03:33.285Z,8.10
2022-08-16T15:06:06.142Z,4.07
2022-08-16T15:08:36.462Z,5.70
2022-08-16T15:11:05.197Z,6.10
2022-08-16T15:13:32.876Z,5.57
2022-08-16T15:16:02.847Z,5.20
2022-08-16T15:18:31.774Z,7.43
2022-08-16T15:21:02.618Z,5.22
2022-08-16T15:23:33.863Z,6.00
2022-08-16T15:26:03.697Z,5.03
2022-08-16T15:28:32.602Z,5.60
2022-08-16T15:31:03.646Z,4.95
2022-08-16T15:33:32.533Z,5.13
2022-08-16T15:35:59.706Z,8.23
2022-08-16T15:38:55.087Z,5.68
2022-08-16T15:41:28.836Z,5.07
2022-08-16T15:44:05.183Z,4.40
2022-08-16T15:46:54.618Z,3.78
2022-08-16T15:49:25.157Z,5.80
2022-08-16T15:51:59.079Z,7.05
2022-08-16T15:54:30.858Z,5.32
2022-08-16T15:57:11.418Z,4.88
2022-08-16T15:59:49.004Z,5.03
2022-08-16T16:02:30.514Z,7.55
2022-08-16T16:05:02.412Z,4.40
2022-08-16T16:07:32.139Z,4.60
2022-08-16T16:10:01.137Z,6.22
2022-08-16T16:15:22.724Z,4.30
2022-08-16T16:17:51.236Z,4.50
2022-08-16T16:20:19.892Z,5.45
2022-08-16T16:22:46.762Z,7.80
2022-08-16T16:25:16.013Z,5.45
2022-08-16T16:27:43.797Z,5.53
2022-08-16T16:30:33.467Z,4.85
2022-08-16T16:32:59.387Z,6.03
2022-08-16T16:35:28.562Z,5.10
2022-08-16T16:37:59.718Z,5.50
2022-08-16T16:40:32.747Z,6.13
2022-08-16T16:43:00.346Z,4.93
2022-08-16T16:45:34.551Z,4.68
2022-08-16T16:48:11.983Z,6.78
2022-08-16T16:50:39.640Z,4.57
2022-08-16T16:53:17.126Z,5.13
2022-08-16T16:55:47.523Z,6.70
2022-08-16T16:58:38.434Z,5.80
2022-08-16T17:01:05.586Z,6.93
2022-08-16T17:03:35.438Z,4.00
2022-08-16T17:06:09.262Z,5.30
2022-08-16T17:08:37.888Z,4.25
2022-08-16T17:11:08.222Z,5.35
2022-08-16T17:13:34.826Z,7.07
2022-08-16T17:16:01.617Z,5.70
2022-08-16T17:19:15.716Z,4.93
2022-08-16T17:21:15.939Z,5.10
2022-08-16T17:23:58.438Z,5.65
2022-08-16T17:26:30.908Z,4.07
2022-08-16T17:31:48.954Z,5.30
2022-08-16T17:34:28.921Z,4.93
2022-08-16T17:36:58.862Z,5.85
2022-08-16T17:39:26.962Z,7.20
2022-08-16T17:39:29.142Z,4.03
2022-08-16T17:41:57.121Z,5.40
2022-08-16T17:44:23.826Z,4.75
2022-08-16T17:46:52.180Z,6.95
2022-08-16T17:49:19.656Z,3.63
2022-08-16T17:51:46.192Z,4.57
2022-08-16T17:54:18.393Z,3.90
2022-08-16T17:57:00.853Z,5.82
2022-08-16T17:59:28.209Z,6.32
2022-08-16T18:01:55.696Z,4.95
2022-08-16T18:04:49.892Z,4.55
2022-08-16T18:07:10.110Z,4.97
2022-08-16T18:09:37.025Z,5.30
2022-08-16T18:12:50.870Z,5.05
2022-08-16T18:15:17.166Z,7.20
2022-08-16T18:17:43.997Z,5.00
2022-08-16T18:20:29.732Z,6.50
2022-08-16T18:23:07.118Z,7.47
2022-08-16T18:25:34.921Z,8.93
2022-08-16T18:28:01.535Z,13.90
2022-08-16T18:30:29.544Z,6.57
2022-08-16T18:32:56.451Z,7.03
2022-08-16T18:35:23.062Z,7.28
2022-08-16T18:37:49.909Z,7.10
2022-08-16T18:40:16.965Z,6.28
2022-08-16T18:43:00.321Z,6.63
2022-08-16T18:45:35.092Z,5.83
2022-08-16T18:48:02.501Z,10.75
2022-08-16T18:50:29.418Z,11.07
2022-08-16T18:53:18.125Z,8.73
2022-08-16T18:55:45.637Z,6.03
2022-08-16T18:58:14.218Z,10.20
2022-08-16T19:00:50.646Z,5.32
2022-08-16T19:03:24.429Z,6.53
2022-08-16T19:05:54.863Z,5.65
2022-08-16T19:08:21.467Z,8.43
2022-08-16T19:10:48.575Z,9.90
2022-08-16T19:13:19.223Z,8.48
2022-08-16T19:15:46.812Z,9.07
2022-08-16T19:18:13.627Z,6.38
2022-08-16T19:20:40.616Z,7.25
2022-08-16T19:23:13.884Z,13.18
2022-08-16T19:25:48.014Z,9.45
2022-08-16T19:28:21.697Z,9.98
2022-08-16T19:31:06.644Z,10.27
2022-08-16T19:33:33.494Z,7.53
2022-08-16T19:36:00.675Z,10.13
2022-08-16T19:38:28.983Z,10.00
2022-08-16T19:40:55.668Z,13.05
2022-08-16T19:43:22.347Z,9.90
2022-08-16T19:45:49.406Z,6.93
2022-08-16T19:48:15.988Z,7.50
2022-08-16T19:50:42.545Z,8.38
2022-08-16T19:53:18.602Z,13.65
2022-08-16T19:55:46.159Z,8.50
2022-08-16T19:58:15.454Z,12.10
2022-08-16T20:00:46.977Z,9.27
2022-08-16T20:03:17.831Z,15.18
2022-08-16T20:05:44.965Z,8.95
2022-08-16T20:08:11.752Z,10.43
2022-08-16T20:10:40.056Z,9.02
2022-08-16T20:13:14.670Z,7.72
2022-08-16T20:15:42.063Z,7.97
2022-08-16T20:18:21.253Z,9.48
2022-08-16T20:20:52.555Z,10.80
2022-08-16T20:23:24.589Z,7.40
2022-08-16T20:25:52.758Z,9.02
2022-08-16T20:28:51.977Z,7.15
2022-08-16T20:31:08.400Z,6.88
2022-08-16T20:33:34.962Z,8.57
2022-08-16T20:36:01.501Z,7.85
2022-08-16T20:38:28.048Z,9.82
2022-08-16T20:40:55.026Z,9.15
2022-08-16T20:43:21.662Z,14.05
2022-08-16T20:45:48.232Z,7.70
2022-08-16T20:48:15.093Z,6.40
2022-08-16T20:50:41.977Z,10.88
2022-08-16T20:53:09.053Z,7.55
2022-08-16T20:55:36.716Z,7.03
2022-08-16T20:58:04.143Z,9.30
2022-08-16T21:00:32.285Z,8.27
2022-08-16T21:02:59.310Z,8.93
2022-08-16T21:05:27.807Z,6.63
2022-08-16T21:07:57.754Z,9.07
2022-08-16T21:10:24.423Z,8.52
2022-08-16T21:12:52.246Z,8.90
2022-08-16T21:15:19.201Z,8.02
2022-08-16T21:17:45.783Z,10.20
2022-08-16T21:20:12.753Z,8.80
2022-08-16T21:22:40.000Z,10.18
2022-08-16T21:25:07.392Z,8.07
2022-08-16T21:27:35.183Z,7.72
2022-08-16T21:30:11.328Z,6.75
2022-08-16T21:32:38.196Z,10.13
2022-08-16T21:35:06.487Z,7.72
2022-08-16T21:37:33.142Z,9.20
2022-08-16T21:40:00.255Z,9.45
2022-08-16T21:42:33.030Z,10.15
2022-08-16T21:45:02.402Z,8.05
2022-08-16T21:47:28.982Z,11.43
2022-08-16T21:49:55.674Z,5.93
2022-08-16T21:52:27.042Z,9.35
2022-08-16T21:54:56.373Z,11.30
2022-08-16T21:57:23.896Z,9.48
2022-08-16T21:59:51.946Z,8.80
2022-08-16T22:02:19.545Z,8.70
2022-08-16T22:04:46.730Z,11.32
2022-08-16T22:07:15.556Z,9.13
2022-08-16T22:09:43.159Z,15.13
2022-08-16T22:12:11.168Z,10.45
2022-08-16T22:14:38.852Z,8.38
2022-08-16T22:17:05.495Z,7.30
2022-08-16T22:19:33.934Z,8.25
2022-08-16T22:22:00.622Z,12.10
2022-08-16T22:24:27.425Z,10.25
2022-08-16T22:26:54.027Z,9.55
2022-08-16T22:29:20.826Z,8.52
2022-08-16T22:31:47.455Z,12.40
2022-08-16T22:34:14.005Z,7.13
2022-08-16T22:36:40.723Z,9.55
2022-08-16T22:39:13.776Z,10.23
2022-08-16T22:41:42.307Z,8.32
2022-08-16T22:44:08.893Z,6.00
2022-08-16T22:46:36.775Z,6.93
2022-08-16T22:49:04.238Z,8.05
2022-08-16T22:51:30.917Z,10.02
2022-08-16T22:53:57.627Z,8.50
2022-08-16T22:56:24.701Z,7.57
2022-08-16T22:58:51.310Z,7.32
2022-08-16T23:01:18.785Z,12.88
2022-08-16T23:03:45.781Z,12.05
2022-08-16T23:06:12.702Z,7.93
2022-08-16T23:08:41.104Z,7.22
2022-08-16T23:11:09.225Z,8.07
2022-08-16T23:13:35.911Z,6.68
2022-08-16T23:16:11.318Z,6.85
2022-08-16T23:18:40.913Z,7.15
2022-08-16T23:21:10.165Z,8.13
2022-08-16T23:23:37.322Z,7.47
2022-08-16T23:26:43.955Z,9.40
2022-08-16T23:28:51.351Z,9.65
2022-08-16T23:31:18.050Z,9.98
2022-08-16T23:33:44.898Z,8.73
2022-08-16T23:36:11.573Z,8.18
2022-08-16T23:38:39.686Z,9.55
2022-08-16T23:41:09.499Z,7.30
2022-08-16T23:43:43.933Z,5.68
2022-08-16T23:46:13.583Z,8.55
2022-08-16T23:49:56.908Z,7.13
2022-08-16T23:51:29.160Z,8.50
2022-08-16T23:53:56.002Z,6.15
2022-08-16T23:56:22.796Z,11.15
2022-08-16T23:58:52.634Z,9.43
